KGRF/GRF METAR and TAF weather

Enter ICAO airport designator
Station Type Date Time Source
KGRF METAR 2022/05/23 15:04 UTC NOAA

KGRF 231504Z AUTO 18005KT 10SM FEW031 BKN070 11/08 A3019 RMK AO2 RAE04 SLP227 $


Station Type Date Time Source
KGRF Decoded METAR 2022/05/23 15:04 UTC NOAA

Fort Lewis / Gray U. S. Army Airfield, WA, United States (KGRF) 47-07N 122-33W 87M
May 23, 2022 - 11:04 AM EDT / 2022.05.23 1504 UTC
Wind: from the S (180 degrees) at 6 MPH (5 KT):0
Visibility: 10 mile(s):0
Sky conditions: mostly cloudy
Temperature: 51 F (11 C)
Dew Point: 46 F (8 C)
Relative Humidity: 81%
Pressure (altimeter): 30.19 in. Hg (1022 hPa)
ob: KGRF 231504Z AUTO 18005KT 10SM FEW031 BKN070 11/08 A3019 RMK AO2 RAE04 SLP227
cycle: 15

Station Type Date Time Source
KGRF TAF 2022/05/23 13:06 UTC NOAA

TAF KGRF 231300Z 2313/2419 30007KT 9999 BKN050 620503 QNH3018INS
TEMPO 2319/2321 9000 -SHRA OVC015
BECMG 2408/2409 33005KT 9999 OVC015 QNH3013INS
BECMG 2411/2412 25004KT 9999 OVC008 QNH3010INS
BECMG 2415/2416 23003KT 9999 -RA BKN020 QNH3009INS TX17/2400Z TN09/2413Z

Example: see airport list